ADDS METAR Data INFO
IDs: Format: Raw Decoded Include TAF

Data at: 0113 UTC 20 Feb 2018

KDPL 200055Z AUTO 00000KT 1 1/4SM BR OVC002 16/16 A3041 RMK AO2 P0002
KDPL 200035Z AUTO 00000KT 1SM -RA BR BKN002 OVC008 16/16 A3040 RMK AO2 P0002
KDPL 200015Z AUTO 00000KT 1SM -RA BR OVC004 16/16 A3040 RMK AO2 P0001
KDPL 192355Z AUTO 00000KT 2SM BR OVC004 16/16 A3040 RMK AO2
KDPL 192335Z AUTO 00000KT 2SM BR OVC004 16/16 A3039 RMK AO2
KDPL 192315Z AUTO 00000KT 2SM BR OVC004 16/16 A3039 RMK AO2
KDPL 192255Z AUTO 00000KT 2SM BR BKN002 BKN037 OVC075 16/16 A3039 RMK AO2 P0002
KDPL 192235Z AUTO 00000KT 2 1/2SM BR SCT004 BKN026 OVC070 16/16 A3038 RMK AO2 P0002
KDPL 192215Z AUTO 00000KT 1 1/2SM -RA BR SCT008 BKN017 OVC025 17/16 A3038 RMK AO2 P0002
KDPL 192155Z AUTO 32004KT 1 3/4SM -RA BR BKN008 OVC017 17/16 A3038 RMK AO2 P0007
KDPL 192135Z AUTO 30007KT 5SM -DZ BR SCT008 OVC018 19/17 A3038 RMK AO2
KDPL 192115Z AUTO 00000KT 5SM DZ BR BKN020 BKN029 OVC043 20/18 A3037 RMK AO2
KDPL 192055Z AUTO 17003KT 5SM BR SCT020 BKN041 OVC050 20/18 A3037 RMK AO2
KDPL 192035Z AUTO 21003KT 5SM HZ SCT020 SCT025 OVC060 22/17 A3037 RMK AO2
KDPL 192015Z AUTO 19005KT 10SM BKN027 OVC038 23/17 A3036 RMK AO2
KDPL 191955Z AUTO 21003KT 10SM BKN029 OVC037 23/17 A3036 RMK AO2
KDPL 191935Z AUTO 22007KT 10SM BKN029 OVC034 23/17 A3036 RMK AO2
KDPL 191915Z AUTO 21004KT 10SM SCT029 SCT037 BKN080 24/17 A3036 RMK AO2
KDPL 191855Z AUTO 18004KT 10SM BKN080 BKN090 23/15 A3037 RMK AO2
KDPL 191835Z AUTO 24004KT 10SM SCT032 SCT044 SCT080 22/14 A3038 RMK AO2
KDPL 191815Z AUTO 24004KT 10SM SCT024 SCT034 22/14 A3039 RMK AO2
KDPL 191755Z AUTO 00000KT 10SM SCT025 SCT034 BKN050 20/13 A3040 RMK AO2
KDPL 191735Z AUTO 00000KT 10SM OVC050 18/12 A3042 RMK AO2
KDPL 191715Z AUTO 00000KT 10SM OVC050 17/11 A3043 RMK AO2
KDPL 191655Z AUTO 00000KT 10SM SCT010 OVC050 15/10 A3044 RMK AO2
KDPL 191635Z AUTO 00000KT 10SM OVC010 14/10 A3044 RMK AO2
KDPL 191615Z AUTO 00000KT 10SM OVC010 14/09 A3045 RMK AO2
KDPL 191555Z AUTO 00000KT 10SM OVC010 13/08 A3046 RMK AO2
KDPL 191535Z AUTO 00000KT 10SM OVC010 12/08 A3046 RMK AO2
KDPL 191515Z AUTO 33004KT 10SM OVC010 12/08 A3046 RMK AO2
KDPL 191455Z AUTO 01005KT 10SM OVC010 12/08 A3046 RMK AO2
KDPL 191435Z AUTO 14004KT 10SM OVC010 11/08 A3045 RMK AO2
KDPL 191415Z AUTO 00000KT 10SM OVC010 11/07 A3045 RMK AO2
KDPL 191355Z AUTO 00000KT 10SM OVC010 10/07 A3045 RMK AO2
KDPL 191335Z AUTO 04003KT 10SM OVC010 10/06 A3045 RMK AO2
KDPL 191315Z AUTO 00000KT 10SM OVC012 09/06 A3045 RMK AO2
KDPL 191255Z AUTO 00000KT 10SM OVC012 09/06 A3045 RMK AO2
KDPL 191235Z AUTO 00000KT 10SM OVC012 09/06 A3045 RMK AO2
KDPL 191215Z AUTO 00000KT 10SM OVC014 09/06 A3044 RMK AO2
KDPL 191155Z AUTO 00000KT 10SM OVC014 09/06 A3044 RMK AO2
KDPL 191135Z AUTO 00000KT 10SM OVC014 08/05 A3043 RMK AO2
KDPL 191115Z AUTO 00000KT 10SM OVC016 08/05 A3043 RMK AO2
KDPL 191055Z AUTO 02003KT 7SM -DZ OVC016 08/05 A3043 RMK AO2
KDPL 191035Z AUTO 00000KT 10SM OVC016 08/05 A3043 RMK AO2
KDPL 191015Z AUTO 03003KT 10SM -RA OVC016 09/05 A3043 RMK AO2
KDPL 190955Z AUTO 00000KT 10SM OVC016 09/05 A3043 RMK AO2
KDPL 190935Z AUTO 00000KT 10SM OVC018 08/04 A3042 RMK AO2
KDPL 190915Z AUTO 00000KT 10SM OVC020 08/04 A3041 RMK AO2
KDPL 190855Z AUTO 00000KT 10SM OVC020 08/04 A3041 RMK AO2
KDPL 190835Z AUTO 09003KT 10SM OVC020 08/04 A3041 RMK AO2
KDPL 190815Z AUTO 10003KT 10SM OVC018 08/04 A3040 RMK AO2
KDPL 190755Z AUTO 00000KT 10SM -DZ OVC016 08/04 A3042 RMK AO2
KDPL 190735Z AUTO 00000KT 10SM OVC018 08/04 A3042 RMK AO2
KDPL 190715Z AUTO 10007KT 060V120 10SM -RA OVC020 08/04 A3042 RMK AO2
KDPL 190655Z AUTO 09003KT 10SM OVC020 08/04 A3043 RMK AO2
KDPL 190635Z AUTO 08003KT 10SM -RA OVC016 08/04 A3044 RMK AO2
KDPL 190615Z AUTO 00000KT 10SM -RA OVC020 08/04 A3044 RMK AO2
KDPL 190555Z AUTO 10005KT 7SM OVC022 08/03 A3044 RMK AO2
KDPL 190535Z AUTO 08005KT 10SM SCT015 OVC022 08/03 A3045 RMK AO2
KDPL 190515Z AUTO 09003KT 10SM SCT015 BKN026 OVC033 08/02 A3045 RMK AO2
KDPL 190455Z AUTO 10003KT 10SM -RA SCT023 BKN030 OVC034 09/03 A3045 RMK AO2
KDPL 190435Z AUTO 09003KT 10SM OVC030 09/03 A3046 RMK AO2
KDPL 190415Z AUTO 00000KT 10SM OVC036 09/03 A3046 RMK AO2
KDPL 190355Z AUTO 11003KT 10SM OVC038 09/03 A3046 RMK AO2
KDPL 190335Z AUTO 08004KT 10SM OVC040 09/03 A3046 RMK AO2
KDPL 190315Z AUTO 11006KT 10SM OVC040 09/03 A3045 RMK AO2
KDPL 190255Z AUTO 11008KT 070V130 10SM OVC046 09/03 A3044 RMK AO2
KDPL 190235Z AUTO 11005KT 10SM OVC046 09/03 A3044 RMK AO2
KDPL 190215Z AUTO 09005KT 10SM OVC046 09/03 A3044 RMK AO2
KDPL 190155Z AUTO 10005KT 10SM OVC044 09/04 A3045 RMK AO2
KDPL 190135Z AUTO 10005KT 10SM OVC044 09/04 A3044 RMK AO2
KDPL 190115Z AUTO 11007KT 080V140 10SM SCT046 09/04 A3043 RMK AO2
KDPL 190055Z AUTO 11004KT 10SM CLR 10/04 A3042 RMK AO2
KDPL 190035Z AUTO 11007KT 10SM CLR 10/04 A3041 RMK AO2
KDPL 190015Z AUTO 10007KT 080V140 10SM CLR 11/05 A3041 RMK AO2
KDPL 182355Z AUTO 11005KT 10SM CLR 11/05 A3040 RMK AO2
KDPL 182335Z AUTO 11008KT 070V130 10SM SCT037 12/05 A3039 RMK AO2
KDPL 182315Z AUTO 12007KT 10SM BKN037 13/06 A3039 RMK AO2
KDPL 182255Z AUTO 11007KT 10SM SCT037 14/06 A3038 RMK AO2
KDPL 182235Z AUTO 13005KT 10SM SCT039 15/07 A3037 RMK AO2
KDPL 182215Z AUTO 11007KT 10SM CLR 16/07 A3035 RMK AO2
KDPL 182155Z AUTO 09006KT 10SM BKN050 17/05 A3035 RMK AO2
KDPL 182135Z AUTO 00000KT 10SM OVC050 17/03 A3034 RMK AO2
KDPL 182115Z AUTO 12005KT 10SM OVC050 18/03 A3033 RMK AO2
KDPL 182055Z AUTO 05004KT 10SM OVC050 18/02 A3033 RMK AO2
KDPL 182035Z AUTO 12004KT 10SM OVC050 18/02 A3033 RMK AO2
KDPL 182015Z AUTO 06004KT 10SM OVC050 17/02 A3033 RMK AO2
KDPL 181955Z AUTO 00000KT 10SM BKN050 18/03 A3033 RMK AO2
KDPL 181935Z AUTO 08005KT 10SM BKN050 18/03 A3033 RMK AO2
KDPL 181915Z AUTO 10003KT 10SM BKN050 17/03 A3033 RMK AO2
KDPL 181855Z AUTO 07005KT 10SM CLR 17/03 A3033 RMK AO2
KDPL 181835Z AUTO 02008KT 10SM CLR 17/03 A3034 RMK AO2
KDPL 181815Z AUTO 03005KT 10SM CLR 16/03 A3034 RMK AO2
KDPL 181755Z AUTO 05005KT 10SM CLR 16/04 A3035 RMK AO2
KDPL 181735Z AUTO 02008KT 010V070 10SM CLR 16/05 A3035 RMK AO2
KDPL 181715Z AUTO 02007KT 10SM CLR 16/05 A3036 RMK AO2
KDPL 181655Z AUTO 01011G17KT 10SM CLR 15/05 A3036 RMK AO2
KDPL 181635Z AUTO 01011G16KT 10SM SCT047 15/06 A3036 RMK AO2
KDPL 181615Z AUTO 03009G16KT 360V060 10SM BKN047 15/05 A3036 RMK AO2
KDPL 181555Z AUTO 03009KT 360V070 10SM BKN049 15/06 A3036 RMK AO2
KDPL 181535Z AUTO 02007KT 360V060 10SM SCT049 14/07 A3035 RMK AO2
KDPL 181515Z AUTO 01009KT 10SM CLR 13/08 A3035 RMK AO2
KDPL 181455Z AUTO 02008KT 10SM SCT050 12/08 A3034 RMK AO2
KDPL 181435Z AUTO 02006KT 10SM BKN050 12/08 A3033 RMK AO2
KDPL 181415Z AUTO 02007KT 10SM SCT050 11/09 A3032 RMK AO2
KDPL 181355Z AUTO 01005KT 10SM CLR 10/08 A3030 RMK AO2
KDPL 181335Z AUTO 36004KT 7SM BR SCT004 SCT050 09/08 A3029 RMK AO2
KDPL 181315Z AUTO 32004KT 4SM BR SCT004 BKN048 08/08 A3028 RMK AO2